Time;durP1;ratioP1;P1;durP2;ratioP2;P2;SDS_P1;SDS_P2;PMS_P1;PMS_P2;Temp;Humidity;BMP_temperature;BMP_pressure;BME280_temperature;BME280_humidity;BME280_pressure;Samples;Min_cycle;Max_cycle;Signal;HPM_P1;HPM_P2
2022/07/24 00:00:23;;;;;;;0.05;0.05;;;17.80;73.60;;;18.67;64.40;101956.66;2061700;28;20617;-61
2022/07/24 00:01:26;;;;;;;0.00;0.00;;;17.70;73.50;;;18.69;64.33;101948.09;2065448;28;20054;-61
2022/07/24 00:02:29;;;;;;;0.00;0.00;;;17.70;73.50;;;18.66;64.41;101952.31;2056551;28;20751;-64
2022/07/24 00:03:33;;;;;;;0.10;0.10;;;17.70;73.40;;;18.65;64.70;101953.50;2059911;28;20514;-61
2022/07/24 00:04:38;;;;;;;0.00;0.00;;;17.70;73.40;;;18.65;64.54;101942.56;2056784;28;20046;-61
2022/07/24 00:05:41;;;;;;;0.00;0.00;;;17.70;73.30;;;18.64;64.42;101951.94;2055937;28;20523;-61
2022/07/24 00:06:44;;;;;;;0.10;0.10;;;17.70;73.30;;;18.63;64.48;101944.09;2065045;28;20387;-61
2022/07/24 00:07:47;;;;;;;0.00;0.00;;;17.70;73.30;;;18.60;64.63;101942.88;2065394;28;20470;-61
2022/07/24 00:08:51;;;;;;;0.10;0.10;;;17.70;73.40;;;18.58;64.60;101939.72;2060189;28;20070;-61
2022/07/24 00:09:53;;;;;;;0.03;0.03;;;17.70;73.40;;;18.56;64.86;101947.50;2057470;28;20070;-63
2022/07/24 00:10:57;;;;;;;0.10;0.10;;;17.70;73.40;;;18.53;64.67;101942.78;2056955;28;20514;-61
2022/07/24 00:11:59;;;;;;;0.10;0.10;;;17.70;73.40;;;18.49;64.93;101939.16;2055950;28;20062;-60
2022/07/24 00:13:03;;;;;;;0.10;0.10;;;17.70;73.40;;;18.49;65.23;101939.16;2057342;28;20051;-60
2022/07/24 00:14:05;;;;;;;0.00;0.00;;;17.70;73.50;;;18.51;64.90;101947.00;2062663;28;20567;-61
2022/07/24 00:15:13;;;;;;;0.08;0.08;;;17.70;73.70;;;18.48;64.95;101943.06;2063733;28;20054;-60
2022/07/24 00:16:15;;;;;;;0.10;0.10;;;17.60;73.70;;;18.49;65.32;101943.88;2057546;28;20129;-60
2022/07/24 00:17:19;;;;;;;0.10;0.10;;;17.60;73.80;;;18.48;65.38;101947.75;2056739;28;20416;-60
2022/07/24 00:18:21;;;;;;;0.00;0.00;;;17.60;73.80;;;18.45;65.11;101941.06;2057173;28;20197;-61
2022/07/24 00:19:26;;;;;;;0.10;0.10;;;17.60;73.80;;;18.42;65.25;101950.03;2064295;28;20050;-60
2022/07/24 00:20:28;;;;;;;0.10;0.10;;;17.70;73.90;;;18.45;65.16;101935.59;2061992;28;20093;-60
2022/07/24 00:21:31;;;;;;;0.10;0.10;;;17.60;73.90;;;18.45;65.43;101932.06;2057311;28;20133;-61
2022/07/24 00:22:34;;;;;;;0.00;0.00;;;17.60;73.80;;;18.45;65.36;101937.53;2062072;28;20050;-60
2022/07/24 00:23:37;;;;;;;0.10;0.10;;;17.60;73.90;;;18.43;65.43;101929.72;2065447;28;20054;-61
2022/07/24 00:24:40;;;;;;;0.10;0.10;;;17.60;73.90;;;18.42;65.43;101933.59;2065308;28;20422;-61
2022/07/24 00:25:43;;;;;;;0.00;0.00;;;17.60;73.90;;;18.42;65.37;101933.59;2061988;28;20078;-62
2022/07/24 00:26:47;;;;;;;0.00;0.00;;;17.60;74.10;;;18.43;65.54;101932.44;2057322;28;20054;-60
2022/07/24 00:27:50;;;;;;;0.00;0.00;;;17.60;74.20;;;18.44;65.57;101931.28;2056068;28;20514;-62
2022/07/24 00:28:53;;;;;;;0.00;0.00;;;17.60;74.20;;;18.43;65.42;101935.19;2058514;28;20046;-60
2022/07/24 00:29:56;;;;;;;0.00;0.00;;;17.60;74.30;;;18.43;65.47;101926.97;2067520;28;20515;-61
2022/07/24 00:30:59;;;;;;;0.00;0.00;;;17.50;74.30;;;18.44;65.68;101934.00;2068324;28;20057;-61
2022/07/24 00:32:02;;;;;;;0.00;0.00;;;17.60;74.30;;;18.44;65.34;101938.72;2056201;28;20055;-61
2022/07/24 00:33:05;;;;;;;0.10;0.10;;;17.60;74.30;;;18.46;65.19;101937.19;2056956;28;20455;-62
2022/07/24 00:34:08;;;;;;;0.00;0.00;;;17.50;74.40;;;18.47;65.13;101932.50;2057261;28;20051;-61
2022/07/24 00:35:13;;;;;;;0.00;0.00;;;17.50;74.40;;;18.47;65.36;101936.00;2061118;28;20065;-61
2022/07/24 00:36:16;;;;;;;0.05;0.05;;;17.50;74.50;;;18.47;65.19;101936.00;2065249;28;20418;-61
2022/07/24 00:37:19;;;;;;;0.10;0.10;;;17.50;74.40;;;18.43;65.60;101934.38;2057330;28;20058;-60
2022/07/24 00:38:22;;;;;;;0.00;0.00;;;17.50;74.50;;;18.39;65.47;101934.34;2056957;28;20563;-62
2022/07/24 00:39:25;;;;;;;0.00;0.00;;;17.50;74.50;;;18.39;65.55;101936.28;2059212;28;20483;-60
2022/07/24 00:40:28;;;;;;;0.00;0.00;;;17.50;74.50;;;18.37;65.52;101936.63;2064834;28;20490;-61
2022/07/24 00:41:31;;;;;;;0.00;0.00;;;17.50;75.10;;;18.37;65.66;101928.41;2062920;28;20089;-60
2022/07/24 00:42:34;;;;;;;0.00;0.00;;;17.40;74.60;;;18.38;65.68;101927.28;2057148;28;20058;-60
2022/07/24 00:44:06;;;;;;;0.00;0.00;;;17.40;74.80;;;18.40;65.75;101935.91;2060873;28;20129;-61
2022/07/24 00:45:10;;;;;;;0.00;0.00;;;17.40;75.20;;;18.41;65.33;101931.25;2061556;28;20406;-61
2022/07/24 00:46:27;;;;;;;0.10;0.10;;;17.30;74.80;;;18.38;65.49;101938.22;2057074;28;20063;-61
2022/07/24 00:47:30;;;;;;;0.05;0.05;;;17.30;74.90;;;18.36;65.58;101931.53;2065285;28;20088;-60
2022/07/24 00:48:35;;;;;;;0.10;0.10;;;17.30;75.00;;;18.32;65.65;101931.44;2064201;28;20541;-61
2022/07/24 00:49:40;;;;;;;0.00;0.00;;;17.30;75.10;;;18.28;65.70;101933.34;2065058;28;20055;-60
2022/07/24 00:50:44;;;;;;;0.10;0.10;;;17.30;75.20;;;18.21;65.89;101932.44;2058013;28;20048;-60
2022/07/24 00:51:50;;;;;;;0.00;0.00;;;17.20;75.40;;;18.19;66.04;101924.59;2058311;28;20470;-61
2022/07/24 00:52:53;;;;;;;0.00;0.00;;;17.20;75.40;;;18.16;65.98;101930.78;2065178;28;20057;-61
2022/07/24 00:53:57;;;;;;;0.00;0.00;;;17.20;75.60;;;18.16;65.99;101930.78;2061845;28;20074;-61
2022/07/24 00:54:59;;;;;;;0.00;0.00;;;17.10;75.60;;;18.15;66.18;101929.22;2062350;28;20077;-63
2022/07/24 00:56:03;;;;;;;0.00;0.00;;;17.10;75.70;;;18.11;66.33;101928.34;2065243;28;20121;-60
2022/07/24 00:57:05;;;;;;;0.10;0.10;;;17.10;75.90;;;18.04;66.57;101922.78;2064390;28;20286;-65
2022/07/24 00:58:13;;;;;;;0.10;0.10;;;17.10;76.00;;;18.04;66.71;101922.78;2063694;28;20069;-61
2022/07/24 00:59:15;;;;;;;0.00;0.00;;;17.00;76.00;;;18.04;66.65;101920.06;2057090;28;20070;-62
2022/07/24 01:00:21;;;;;;;0.00;0.00;;;17.00;76.20;;;18.05;66.63;101918.88;2058144;28;20505;-60
2022/07/24 01:01:24;;;;;;;0.00;0.00;;;17.00;76.20;;;18.06;66.50;101919.69;2065126;28;20050;-64
2022/07/24 01:02:27;;;;;;;0.00;0.00;;;16.90;76.40;;;18.07;66.30;101918.53;2064761;28;20081;-60
2022/07/24 01:03:30;;;;;;;0.05;0.05;;;16.90;76.50;;;18.06;66.66;101909.53;2064301;28;20073;-61
2022/07/24 01:04:33;;;;;;;0.00;0.00;;;16.90;76.60;;;18.02;66.30;101908.69;2056784;28;20055;-66
2022/07/24 01:05:36;;;;;;;0.10;0.10;;;16.90;76.70;;;18.02;66.54;101914.16;2060286;28;20096;-60
2022/07/24 01:06:42;;;;;;;0.05;0.05;;;16.90;76.80;;;18.02;66.67;101908.69;2056515;28;20059;-61
2022/07/24 01:07:45;;;;;;;0.08;0.08;;;16.90;77.00;;;18.01;66.70;101909.84;2057813;28;20122;-60
2022/07/24 01:08:49;;;;;;;0.00;0.00;;;16.80;77.00;;;17.92;66.67;101901.09;2060191;28;20054;-64
2022/07/24 01:09:52;;;;;;;0.00;0.00;;;16.80;77.00;;;17.96;66.86;101906.63;2065166;28;20138;-60
2022/07/24 01:10:56;;;;;;;0.00;0.00;;;16.80;77.10;;;17.96;66.82;101909.34;2062022;28;20061;-60
2022/07/24 01:11:59;;;;;;;0.00;0.00;;;16.80;77.30;;;17.92;66.89;101910.09;2062655;28;20414;-61
2022/07/24 01:13:06;;;;;;;0.00;0.00;;;16.70;77.40;;;17.91;66.97;101913.19;2057116;28;20051;-60
2022/07/24 01:14:11;;;;;;;0.00;0.00;;;16.70;77.40;;;17.89;67.14;101904.56;2058126;28;20395;-60
2022/07/24 01:15:14;;;;;;;0.00;0.00;;;16.70;77.50;;;17.87;67.00;101904.91;2057782;28;20046;-60
2022/07/24 01:16:17;;;;;;;0.00;0.00;;;16.70;77.60;;;17.87;67.24;101904.13;2057605;28;20306;-60
2022/07/24 01:17:21;;;;;;;0.00;0.00;;;16.70;77.60;;;17.88;67.31;101897.50;2056102;28;20518;-60
2022/07/24 01:18:24;;;;;;;0.00;0.00;;;16.70;77.60;;;17.83;67.16;101895.88;2056435;28;20050;-63
2022/07/24 01:19:27;;;;;;;0.10;0.10;;;16.70;77.80;;;17.88;67.04;101898.31;2059488;28;20458;-64
2022/07/24 01:20:31;;;;;;;0.00;0.00;;;16.70;77.80;;;17.87;67.23;101893.19;2056818;28;20085;-60
2022/07/24 01:21:34;;;;;;;0.00;0.00;;;16.70;77.80;;;17.87;67.37;101896.72;2062572;28;20092;-61
2022/07/24 01:22:38;;;;;;;0.10;0.10;;;16.70;77.80;;;17.86;67.39;101895.16;2062052;28;20133;-60
2022/07/24 01:23:41;;;;;;;0.03;0.03;;;16.80;77.80;;;17.87;67.47;101896.72;2063861;28;20126;-61
2022/07/24 01:24:44;;;;;;;0.10;0.10;;;16.80;77.80;;;17.85;67.55;101893.56;2056775;28;20054;-62
2022/07/24 01:25:46;;;;;;;0.05;0.05;;;16.80;77.60;;;17.81;67.63;101889.19;2056295;28;20498;-61
2022/07/24 01:26:51;;;;;;;0.00;0.00;;;16.80;77.50;;;17.83;67.81;101889.63;2058960;28;20054;-64
2022/07/24 01:27:53;;;;;;;0.08;0.08;;;16.90;77.50;;;17.81;67.82;101883.72;2060169;28;20125;-60
2022/07/24 01:28:56;;;;;;;0.00;0.00;;;16.80;77.40;;;17.82;67.72;101891.56;2056237;28;20525;-62
2022/07/24 01:29:59;;;;;;;0.00;0.00;;;16.80;77.40;;;17.83;67.69;101895.88;2056135;28;20047;-60
2022/07/24 01:31:02;;;;;;;0.10;0.10;;;16.80;77.40;;;17.85;67.75;101890.06;2056953;28;20058;-60
2022/07/24 01:32:06;;;;;;;0.00;0.00;;;16.80;77.50;;;17.83;67.48;101892.34;2055589;28;20043;-60
2022/07/24 01:33:09;;;;;;;0.00;0.00;;;16.80;77.40;;;17.79;67.64;101888.78;2057123;28;20055;-61
2022/07/24 01:34:12;;;;;;;0.03;0.03;;;16.80;77.30;;;17.75;67.80;101879.72;2064865;28;20054;-61
2022/07/24 01:35:16;;;;;;;0.00;0.00;;;16.80;77.30;;;17.73;67.90;101890.22;2058524;28;20515;-60
2022/07/24 01:36:24;;;;;;;0.08;0.08;;;16.90;77.30;;;17.69;68.07;101881.16;2062362;28;20046;-60
2022/07/24 01:37:29;;;;;;;0.00;0.00;;;16.90;77.10;;;17.68;67.98;101880.38;2056901;28;20167;-61
2022/07/24 01:38:31;;;;;;;0.00;0.00;;;16.90;77.10;;;17.70;68.05;101880.00;2060041;28;20407;-60
2022/07/24 01:39:35;;;;;;;0.00;0.00;;;16.90;77.10;;;17.72;67.76;101885.91;2069196;28;20141;-60
2022/07/24 01:40:37;;;;;;;0.10;0.10;;;16.80;77.20;;;17.74;67.87;101886.34;2071218;28;20105;-66
2022/07/24 01:41:41;;;;;;;0.00;0.00;;;16.80;77.20;;;17.75;67.80;101882.44;2057919;28;20055;-63
2022/07/24 01:42:43;;;;;;;0.00;0.00;;;16.80;77.20;;;17.73;67.93;101880.09;2059243;28;20058;-62
2022/07/24 01:43:47;;;;;;;0.00;0.00;;;16.80;77.30;;;17.72;67.96;101883.97;2072888;28;20525;-60
2022/07/24 01:44:49;;;;;;;0.00;0.00;;;16.80;77.30;;;17.71;67.82;101882.38;2066040;28;20402;-60
2022/07/24 01:45:53;;;;;;;0.00;0.00;;;16.80;77.40;;;17.71;68.01;101889.81;2064566;28;20100;-63
2022/07/24 01:46:55;;;;;;;0.03;0.03;;;16.70;77.50;;;17.71;67.67;101884.34;2065084;28;20096;-60
2022/07/24 01:47:59;;;;;;;0.00;0.00;;;16.80;77.60;;;17.73;67.81;101882.00;2072850;28;20065;-60
2022/07/24 01:49:03;;;;;;;0.00;0.00;;;16.70;77.70;;;17.72;67.92;101877.72;2066535;28;20054;-60
2022/07/24 01:50:07;;;;;;;0.00;0.00;;;16.60;77.80;;;17.74;67.65;101880.88;2064119;28;20514;-61
2022/07/24 01:51:11;;;;;;;0.00;0.00;;;16.60;77.80;;;17.74;67.57;101881.66;2056647;28;20097;-61
2022/07/24 01:52:17;;;;;;;0.05;0.05;;;16.60;77.90;;;17.74;67.82;101886.34;2055899;28;20459;-60
2022/07/24 01:53:21;;;;;;;0.00;0.00;;;16.60;78.00;;;17.76;67.86;101889.47;2047985;29;20063;-65
2022/07/24 01:54:24;;;;;;;0.00;0.00;;;16.60;78.20;;;17.75;67.40;101882.44;2039122;28;20059;-60
2022/07/24 01:55:27;;;;;;;0.10;0.10;;;16.50;78.20;;;17.74;67.57;101880.88;2049196;28;20508;-60
2022/07/24 01:56:31;;;;;;;0.05;0.05;;;16.50;78.30;;;17.71;67.84;101884.34;2072909;28;20120;-61
2022/07/24 01:57:35;;;;;;;0.00;0.00;;;16.50;78.40;;;17.67;67.92;101880.75;2061100;28;20047;-60
2022/07/24 01:58:39;;;;;;;0.00;0.00;;;16.50;78.40;;;17.63;68.00;101877.16;2056405;28;20055;-60
2022/07/24 01:59:42;;;;;;;0.10;0.10;;;16.50;78.30;;;17.64;68.15;101886.94;2056675;28;20062;-61
2022/07/24 02:00:46;;;;;;;0.00;0.00;;;16.50;78.40;;;17.61;68.23;101884.94;2055377;28;20046;-61
2022/07/24 02:01:48;;;;;;;0.00;0.00;;;16.50;78.40;;;17.60;68.18;101877.91;2056594;28;20059;-60
2022/07/24 02:02:52;;;;;;;0.05;0.05;;;16.50;79.10;;;17.58;68.25;101889.16;2055919;28;20057;-60
2022/07/24 02:03:54;;;;;;;0.00;0.00;;;16.50;78.50;;;17.60;68.26;101886.84;2056207;28;20059;-61
2022/07/24 02:04:57;;;;;;;0.00;0.00;;;16.50;78.50;;;17.61;68.28;101887.66;2056638;28;20558;-61
2022/07/24 02:06:00;;;;;;;0.03;0.03;;;16.50;78.60;;;17.62;68.27;101881.81;2055463;28;20426;-61
2022/07/24 02:07:03;;;;;;;0.00;0.00;;;16.50;78.70;;;17.61;68.36;101882.19;2056444;28;20089;-61
2022/07/24 02:08:06;;;;;;;0.00;0.00;;;16.40;78.60;;;17.60;68.40;101886.09;2055942;28;20066;-60
2022/07/24 02:09:10;;;;;;;0.00;0.00;;;16.50;78.80;;;17.59;68.28;101884.50;2058768;28;20736;-66
2022/07/24 02:10:14;;;;;;;0.00;0.00;;;16.40;78.90;;;17.57;68.52;101876.66;2064741;28;20573;-61
2022/07/24 02:11:18;;;;;;;0.00;0.00;;;16.40;78.90;;;17.55;68.47;101887.16;2063439;28;20046;-60
2022/07/24 02:12:20;;;;;;;0.00;0.00;;;16.40;79.10;;;17.54;68.43;101887.50;2063622;28;20065;-60
2022/07/24 02:13:25;;;;;;;0.10;0.10;;;16.40;79.10;;;17.53;68.62;101885.94;2071449;28;20058;-60
2022/07/24 02:14:28;;;;;;;0.00;0.00;;;16.40;79.20;;;17.51;68.58;101882.78;2063787;28;20089;-60
2022/07/24 02:15:31;;;;;;;0.03;0.03;;;16.30;79.20;;;17.49;68.62;101883.13;2056468;28;20126;-60
2022/07/24 02:16:35;;;;;;;0.00;0.00;;;16.30;79.30;;;17.47;68.61;101887.41;2056274;28;20054;-61
2022/07/24 02:17:37;;;;;;;0.00;0.00;;;16.30;79.30;;;17.42;68.74;101883.00;2057150;28;20058;-61
2022/07/24 02:18:41;;;;;;;0.00;0.00;;;16.30;79.50;;;17.47;68.96;101887.41;2064576;28;20537;-61
2022/07/24 02:19:43;;;;;;;0.00;0.00;;;16.30;79.50;;;17.49;68.89;101877.69;2064229;28;20498;-60
2022/07/24 02:20:47;;;;;;;0.00;0.00;;;16.20;79.60;;;17.47;68.89;101874.50;2064516;28;20065;-61
2022/07/24 02:21:49;;;;;;;0.10;0.10;;;16.20;79.70;;;17.47;68.80;101874.50;2056450;28;20054;-61
2022/07/24 02:22:53;;;;;;;0.00;0.00;;;16.30;79.70;;;17.45;69.03;101882.28;2055847;28;20933;-60
2022/07/24 02:23:55;;;;;;;0.10;0.10;;;16.30;79.80;;;17.44;69.26;101871.72;2064142;28;20086;-61
2022/07/24 02:25:00;;;;;;;0.00;0.00;;;16.30;79.90;;;17.43;69.14;101870.09;2055583;28;20638;-61
2022/07/24 02:26:03;;;;;;;0.00;0.00;;;16.30;79.90;;;17.45;69.26;101870.56;2056705;28;20513;-60
2022/07/24 02:27:06;;;;;;;0.00;0.00;;;16.30;80.00;;;17.47;68.92;101873.75;2064515;28;20105;-61
2022/07/24 02:28:08;;;;;;;0.10;0.10;;;16.30;79.90;;;17.46;68.95;101867.47;2059432;28;20051;-61
2022/07/24 02:29:12;;;;;;;0.00;0.00;;;16.30;79.90;;;17.46;69.25;101872.16;2056384;28;20063;-61
2022/07/24 02:30:17;;;;;;;0.00;0.00;;;16.30;79.90;;;17.46;69.33;101874.88;2062633;28;20058;-60
2022/07/24 02:31:21;;;;;;;0.10;0.10;;;16.30;79.90;;;17.45;69.04;101868.66;2063447;28;20289;-61
2022/07/24 02:32:24;;;;;;;0.10;0.10;;;16.30;80.00;;;17.46;69.36;101875.66;2064381;28;20101;-64
2022/07/24 02:33:28;;;;;;;0.00;0.00;;;16.30;79.90;;;17.45;69.29;101871.38;2058175;28;20051;-60
2022/07/24 02:34:30;;;;;;;0.00;0.00;;;16.30;79.90;;;17.47;69.23;101869.06;2056233;28;20062;-61
2022/07/24 02:35:34;;;;;;;0.00;0.00;;;16.30;79.90;;;17.47;69.48;101858.13;2056458;28;20447;-61
2022/07/24 02:36:36;;;;;;;0.03;0.03;;;16.30;79.90;;;17.47;69.23;101865.56;2058994;28;20494;-60
2022/07/24 02:37:42;;;;;;;0.00;0.00;;;16.30;80.00;;;17.48;69.30;101864.38;2056315;28;20491;-63
2022/07/24 02:38:44;;;;;;;0.00;0.00;;;16.30;80.00;;;17.48;69.40;101862.47;2055347;28;20459;-60
2022/07/24 02:39:48;;;;;;;0.10;0.10;;;16.30;79.90;;;17.45;69.18;101851.47;2058044;28;20055;-60
2022/07/24 02:40:52;;;;;;;0.10;0.10;;;16.30;80.10;;;17.47;69.39;101860.09;2064314;28;20073;-60
2022/07/24 02:41:55;;;;;;;0.00;0.00;;;16.30;80.10;;;17.44;69.34;101856.13;2057920;28;20050;-61
2022/07/24 02:42:57;;;;;;;0.10;0.10;;;16.30;80.20;;;17.44;69.31;101855.31;2055931;28;20062;-62
2022/07/24 02:44:01;;;;;;;0.00;0.00;;;16.20;80.20;;;17.45;69.32;101852.25;2062917;28;20086;-63
2022/07/24 02:45:05;;;;;;;0.10;0.10;;;16.20;80.20;;;17.44;69.50;101849.88;2060225;28;20057;-61
2022/07/24 02:46:09;;;;;;;0.00;0.00;;;16.30;80.20;;;17.40;69.85;101852.53;2056338;28;20677;-61
2022/07/24 02:47:11;;;;;;;0.05;0.05;;;16.30;80.20;;;17.38;69.61;101843.91;2066242;28;20046;-65
2022/07/24 02:48:14;;;;;;;0.08;0.08;;;16.30;80.10;;;17.32;70.04;101836.38;2070587;28;20128;-60
2022/07/24 02:49:17;;;;;;;0.00;0.00;;;16.30;80.00;;;17.34;70.00;101844.97;2064395;28;20058;-60
2022/07/24 02:50:24;;;;;;;0.10;0.10;;;16.40;80.10;;;17.36;70.14;101848.16;2055430;28;20047;-60
2022/07/24 02:51:27;;;;;;;0.10;0.10;;;16.40;80.10;;;17.38;69.86;101845.81;2056479;28;20062;-61
2022/07/24 02:52:30;;;;;;;0.00;0.00;;;16.40;80.10;;;17.37;69.96;101847.78;2055129;28;20212;-61
2022/07/24 02:53:33;;;;;;;0.10;0.10;;;16.40;80.70;;;17.36;70.35;101845.41;2055864;28;20081;-60
2022/07/24 02:54:36;;;;;;;0.00;0.00;;;16.40;80.20;;;17.31;70.13;101832.88;2056263;28;20431;-61
2022/07/24 02:55:39;;;;;;;0.10;0.10;;;16.30;80.20;;;17.39;69.93;101848.22;2061143;28;20057;-63
2022/07/24 02:56:43;;;;;;;0.10;0.10;;;16.40;80.10;;;17.38;69.95;101846.63;2063885;28;20126;-60
2022/07/24 02:57:46;;;;;;;0.00;0.00;;;16.40;80.20;;;17.35;69.87;101841.09;2064479;28;20125;-60
2022/07/24 02:58:49;;;;;;;0.00;0.00;;;16.40;80.10;;;17.36;70.16;101840.72;2063927;28;20510;-61
2022/07/24 02:59:52;;;;;;;0.05;0.05;;;16.40;80.10;;;17.36;70.16;101843.47;2064298;28;20495;-60
2022/07/24 03:00:55;;;;;;;0.00;0.00;;;16.40;80.10;;;17.37;70.03;101838.81;2047303;28;20055;-63
2022/07/24 03:01:58;;;;;;;0.00;0.00;;;16.40;80.10;;;17.37;70.43;101836.06;2047765;28;20059;-60
2022/07/24 03:03:02;;;;;;;0.00;0.00;;;16.40;80.10;;;17.33;70.27;101827.81;2056399;28;20086;-60
2022/07/24 03:04:05;;;;;;;0.00;0.00;;;16.40;80.10;;;17.39;69.95;101829.13;2055354;28;20061;-60
2022/07/24 03:05:10;;;;;;;0.00;0.00;;;16.40;80.70;;;17.37;70.21;101827.88;2055737;28;20059;-61
2022/07/24 03:06:12;;;;;;;0.03;0.03;;;16.40;80.30;;;17.39;70.02;101831.84;2064374;28;20553;-61
2022/07/24 03:07:17;;;;;;;0.10;0.10;;;16.30;80.20;;;17.40;69.77;101827.16;2059454;28;20063;-60
2022/07/24 03:08:24;;;;;;;0.03;0.03;;;16.30;80.30;;;17.40;70.08;101832.63;2056227;28;20058;-60
2022/07/24 03:09:30;;;;;;;0.10;0.10;;;16.30;80.20;;;17.41;70.01;101829.53;2060201;28;20070;-60
2022/07/24 03:10:35;;;;;;;0.00;0.00;;;16.30;80.30;;;17.39;69.92;101831.84;2062918;28;20062;-61
2022/07/24 03:11:37;;;;;;;0.10;0.10;;;16.30;80.30;;;17.38;70.00;101834.91;2064135;28;20088;-60
2022/07/24 03:12:43;;;;;;;0.00;0.00;;;16.30;80.80;;;17.40;69.94;101832.63;2064125;28;20082;-61
2022/07/24 03:13:46;;;;;;;0.10;0.10;;;16.30;80.40;;;17.40;69.94;101825.22;2062275;28;20042;-61
2022/07/24 03:14:49;;;;;;;0.03;0.03;;;16.30;80.40;;;17.40;70.00;101832.63;2056384;28;20150;-60
2022/07/24 03:15:52;;;;;;;0.00;0.00;;;16.30;80.40;;;17.38;70.07;101835.72;2055428;28;20047;-60
2022/07/24 03:16:55;;;;;;;0.10;0.10;;;16.30;80.60;;;17.37;69.87;101822.41;2056420;28;20566;-61
2022/07/24 03:17:58;;;;;;;0.05;0.05;;;16.30;80.40;;;17.34;70.05;101823.16;2055929;28;20113;-60
2022/07/24 03:19:01;;;;;;;0.00;0.00;;;16.30;80.40;;;17.34;70.22;101825.88;2058313;28;20158;-64
2022/07/24 03:20:06;;;;;;;0.10;0.10;;;16.30;80.30;;;17.33;70.31;101824.31;2064882;28;20502;-61
2022/07/24 03:21:09;;;;;;;0.05;0.05;;;16.40;80.40;;;17.34;70.11;101823.94;2055447;28;20089;-61
2022/07/24 03:22:33;;;;;;;0.10;0.10;;;16.30;80.40;;;17.37;69.69;101827.88;2055898;28;20434;-61
2022/07/24 03:23:36;;;;;;;0.10;0.10;;;16.30;80.50;;;17.38;70.09;101821.25;2056285;28;20051;-61
2022/07/24 03:24:39;;;;;;;0.10;0.10;;;16.30;80.50;;;17.36;70.10;101829.81;2055355;28;20410;-61
2022/07/24 03:25:42;;;;;;;0.10;0.10;;;16.30;80.50;;;17.33;69.85;101827.81;2057325;28;20058;-61
2022/07/24 03:26:45;;;;;;;0.10;0.10;;;16.20;80.50;;;17.33;70.15;101824.31;2057547;28;20059;-61
2022/07/24 03:27:50;;;;;;;0.10;0.10;;;16.20;80.60;;;17.34;70.23;101834.06;2055371;28;20519;-61
2022/07/24 03:28:53;;;;;;;0.10;0.10;;;16.20;80.70;;;17.32;70.10;101825.44;2056177;28;20046;-60
2022/07/24 03:29:56;;;;;;;0.10;0.10;;;16.20;80.70;;;17.30;70.44;101822.31;2059988;28;20188;-61
2022/07/24 03:31:00;;;;;;;0.10;0.10;;;16.20;80.70;;;17.29;70.85;101823.44;2062144;28;20055;-61
2022/07/24 03:32:03;;;;;;;0.10;0.10;;;16.20;80.80;;;17.28;70.29;101821.88;2063649;28;20066;-61
2022/07/24 03:33:06;;;;;;;0.10;0.10;;;16.20;80.90;;;17.28;70.15;101814.44;2062989;28;20080;-62
2022/07/24 03:34:10;;;;;;;0.10;0.00;;;16.20;80.90;;;17.28;70.29;101819.91;2056902;28;20510;-60
2022/07/24 03:35:12;;;;;;;0.10;0.10;;;16.10;81.00;;;17.29;70.06;101809.78;2055892;28;20058;-60
2022/07/24 03:36:16;;;;;;;0.10;0.10;;;16.20;81.10;;;17.30;70.43;101811.38;2055438;28;20054;-66
2022/07/24 03:37:18;;;;;;;0.10;0.10;;;16.10;81.00;;;17.31;70.35;101815.69;2056482;28;20504;-60
2022/07/24 03:38:22;;;;;;;0.10;0.10;;;16.20;81.10;;;17.29;70.18;101810.59;2059596;28;20383;-60
2022/07/24 03:39:24;;;;;;;0.10;0.10;;;16.20;81.10;;;17.31;69.90;101812.97;2062125;28;20627;-61
2022/07/24 03:40:28;;;;;;;0.10;0.10;;;16.20;81.20;;;17.30;70.44;101806.69;2062872;28;20472;-61
2022/07/24 03:41:31;;;;;;;0.10;0.10;;;16.20;81.10;;;17.31;70.32;101808.28;2061400;28;20057;-61
2022/07/24 03:42:34;;;;;;;0.10;0.10;;;16.20;81.20;;;17.24;70.37;101790.97;2056173;28;20051;-61
2022/07/24 03:43:38;;;;;;;0.10;0.10;;;16.20;81.10;;;17.32;70.39;101803.59;2061029;28;20057;-61
2022/07/24 03:44:42;;;;;;;0.10;0.10;;;16.20;81.10;;;17.26;70.11;101794.13;2063158;28;20065;-61
2022/07/24 03:45:45;;;;;;;0.10;0.10;;;16.20;81.10;;;17.34;70.37;101806.78;2056025;28;20384;-60
2022/07/24 03:46:48;;;;;;;0.10;0.10;;;16.20;81.00;;;17.34;70.42;101801.31;2060899;28;20046;-60
2022/07/24 03:47:51;;;;;;;0.00;0.00;;;16.20;80.90;;;17.34;70.38;101806.78;2072299;28;20455;-61
2022/07/24 03:48:54;;;;;;;0.10;0.10;;;16.30;80.90;;;17.36;70.23;101815.41;2058509;28;20078;-60
2022/07/24 03:49:57;;;;;;;0.10;0.10;;;16.30;80.80;;;17.36;70.38;101813.44;2055705;28;20387;-62
2022/07/24 03:51:00;;;;;;;0.10;0.10;;;16.30;80.80;;;17.36;70.18;101816.16;2056377;28;20093;-61
2022/07/24 03:52:04;;;;;;;0.10;0.10;;;16.30;80.70;;;17.40;70.38;101817.03;2055262;28;20510;-60
2022/07/24 03:53:07;;;;;;;0.00;0.00;;;16.30;80.60;;;17.44;70.21;101817.09;2057089;28;20513;-61
2022/07/24 03:54:13;;;;;;;0.10;0.10;;;16.30;81.10;;;17.47;69.80;101817.16;2057150;28;20059;-61
2022/07/24 03:55:15;;;;;;;0.10;0.10;;;16.40;80.50;;;17.48;69.88;101817.97;2056647;28;20530;-65
2022/07/24 03:56:19;;;;;;;0.10;0.10;;;16.40;80.40;;;17.49;69.83;101814.88;2057632;28;20058;-60
2022/07/24 03:57:22;;;;;;;0.10;0.10;;;16.40;80.30;;;17.48;69.65;101812.50;2063112;28;20038;-61
2022/07/24 03:58:25;;;;;;;0.10;0.10;;;16.40;80.20;;;17.49;70.23;101816.84;2064305;28;20050;-61
2022/07/24 03:59:29;;;;;;;0.20;0.20;;;16.50;80.80;;;17.48;70.00;101812.50;2048950;29;20105;-63
2022/07/24 04:00:32;;;;;;;0.10;0.10;;;16.50;80.10;;;17.49;70.06;101816.84;2044983;28;20074;-61
2022/07/24 04:01:35;;;;;;;0.10;0.10;;;16.50;80.10;;;17.48;70.06;101815.25;2056756;28;20087;-60
2022/07/24 04:02:38;;;;;;;0.10;0.10;;;16.50;80.00;;;17.48;69.97;101818.78;2055127;28;20054;-61
2022/07/24 04:03:41;;;;;;;0.10;0.10;;;16.50;80.00;;;17.48;70.05;101817.97;2056201;28;20454;-61
2022/07/24 04:04:44;;;;;;;0.10;0.10;;;16.50;80.00;;;17.51;69.88;101822.69;2065530;28;20568;-60
2022/07/24 04:05:47;;;;;;;0.10;0.10;;;16.50;80.00;;;17.50;70.00;101812.94;2059802;28;20592;-61
2022/07/24 04:06:53;;;;;;;0.10;0.10;;;16.50;80.00;;;17.53;69.75;101820.41;2056929;28;20105;-60
2022/07/24 04:07:56;;;;;;;0.10;0.10;;;16.50;80.00;;;17.54;69.95;101816.50;2057565;28;20130;-61
2022/07/24 04:08:59;;;;;;;0.10;0.10;;;16.50;80.00;;;17.53;69.76;101813.00;2060759;28;20506;-61
2022/07/24 04:10:06;;;;;;;0.10;0.10;;;16.50;80.00;;;17.53;69.97;101814.94;2057373;28;20051;-60
2022/07/24 04:11:08;;;;;;;0.10;0.10;;;16.50;80.00;;;17.53;69.74;101821.22;2063693;28;20418;-60
2022/07/24 04:12:12;;;;;;;0.10;0.10;;;16.50;80.00;;;17.53;69.87;101814.94;2062738;28;20054;-62
2022/07/24 04:13:14;;;;;;;0.10;0.10;;;16.50;80.00;;;17.54;69.75;101819.25;2057638;28;20054;-62
2022/07/24 04:14:17;;;;;;;0.10;0.10;;;16.60;80.00;;;17.54;69.87;101817.31;2061829;28;20053;-60
2022/07/24 04:15:21;;;;;;;0.10;0.10;;;16.50;80.00;;;17.54;70.02;101816.50;2065094;28;20066;-62
2022/07/24 04:16:25;;;;;;;0.10;0.10;;;16.60;80.00;;;17.57;70.09;101821.25;2057248;28;20078;-60
2022/07/24 04:17:27;;;;;;;0.10;0.10;;;16.60;79.90;;;17.57;69.90;101816.59;2056775;28;20054;-62
2022/07/24 04:18:30;;;;;;;0.10;0.10;;;16.60;79.90;;;17.58;69.83;101817.38;2057431;28;20549;-61
2022/07/24 04:19:33;;;;;;;0.20;0.20;;;16.60;80.00;;;17.59;69.76;101816.22;2056747;28;20077;-60
2022/07/24 04:20:36;;;;;;;0.10;0.10;;;16.60;79.90;;;17.57;69.77;101816.59;2057952;28;20532;-60
2022/07/24 04:21:40;;;;;;;0.10;0.10;;;16.60;79.90;;;17.58;70.02;101809.19;2065223;28;20054;-60
2022/07/24 04:22:43;;;;;;;0.10;0.10;;;16.60;79.90;;;17.57;69.89;101815.78;2060323;28;20086;-62
2022/07/24 04:23:48;;;;;;;0.10;0.10;;;16.60;79.80;;;17.59;69.59;101813.50;2057518;28;20131;-60
2022/07/24 04:24:51;;;;;;;0.10;0.10;;;16.60;79.70;;;17.59;69.70;101810.75;2057407;28;20051;-61